sensor_id;sensor_type;location;lat;lon;timestamp;pressure;altitude;pressure_sealevel;temperature;humidity
76260;BME280;65076;52.362;6.588;2022-11-20T00:01:31;101433.38;;;-0.50;70.52
76260;BME280;65076;52.362;6.588;2022-11-20T00:04:01;101436.94;;;-0.46;70.47
76260;BME280;65076;52.362;6.588;2022-11-20T00:06:29;101438.72;;;-0.40;70.02
76260;BME280;65076;52.362;6.588;2022-11-20T00:09:01;101437.03;;;-0.32;69.54
76260;BME280;65076;52.362;6.588;2022-11-20T00:11:30;101431.63;;;-0.46;70.64
76260;BME280;65076;52.362;6.588;2022-11-20T00:14:00;101419.38;;;-0.21;70.10
76260;BME280;65076;52.362;6.588;2022-11-20T00:16:31;101426.34;;;-0.38;70.46
76260;BME280;65076;52.362;6.588;2022-11-20T00:19:00;101416.59;;;-0.41;70.52
76260;BME280;65076;52.362;6.588;2022-11-20T00:21:29;101415.56;;;-0.63;71.69
76260;BME280;65076;52.362;6.588;2022-11-20T00:23:58;101413.00;;;-0.49;71.22
76260;BME280;65076;52.362;6.588;2022-11-20T00:26:27;101411.13;;;-0.68;70.84
76260;BME280;65076;52.362;6.588;2022-11-20T00:28:57;101402.94;;;-1.00;72.50
76260;BME280;65076;52.362;6.588;2022-11-20T00:31:27;101408.16;;;-1.08;72.65
76260;BME280;65076;52.362;6.588;2022-11-20T00:33:56;101413.34;;;-1.23;73.80
76260;BME280;65076;52.362;6.588;2022-11-20T00:36:27;101409.03;;;-1.09;73.80
76260;BME280;65076;52.362;6.588;2022-11-20T00:38:57;101408.19;;;-1.06;72.67
76260;BME280;65076;52.362;6.588;2022-11-20T00:41:27;101411.81;;;-0.92;72.05
76260;BME280;65076;52.362;6.588;2022-11-20T00:43:56;101414.34;;;-1.09;72.52
76260;BME280;65076;52.362;6.588;2022-11-20T00:46:25;101407.59;;;-0.69;71.78
76260;BME280;65076;52.362;6.588;2022-11-20T00:48:55;101395.22;;;-0.61;71.44
76260;BME280;65076;52.362;6.588;2022-11-20T00:51:24;101400.59;;;-0.47;71.19
76260;BME280;65076;52.362;6.588;2022-11-20T00:53:55;101393.38;;;-0.68;72.16
76260;BME280;65076;52.362;6.588;2022-11-20T00:56:24;101385.59;;;-0.39;71.71
76260;BME280;65076;52.362;6.588;2022-11-20T00:58:52;101378.41;;;-0.52;70.83
76260;BME280;65076;52.362;6.588;2022-11-20T01:01:24;101377.50;;;-0.57;71.28
76260;BME280;65076;52.362;6.588;2022-11-20T01:03:54;101375.59;;;-0.81;71.75
76260;BME280;65076;52.362;6.588;2022-11-20T01:06:24;101372.91;;;-0.87;71.70
76260;BME280;65076;52.362;6.588;2022-11-20T01:08:55;101369.16;;;-1.15;71.58
76260;BME280;65076;52.362;6.588;2022-11-20T01:11:26;101375.19;;;-1.34;72.44
76260;BME280;65076;52.362;6.588;2022-11-20T01:13:56;101374.50;;;-1.12;72.28
76260;BME280;65076;52.362;6.588;2022-11-20T01:16:28;101372.91;;;-0.87;71.15
76260;BME280;65076;52.362;6.588;2022-11-20T01:18:59;101374.78;;;-0.72;70.30
76260;BME280;65076;52.362;6.588;2022-11-20T01:21:32;101372.13;;;-0.68;70.09
76260;BME280;65076;52.362;6.588;2022-11-20T01:24:03;101371.06;;;-0.99;70.81
76260;BME280;65076;52.362;6.588;2022-11-20T01:26:35;101380.69;;;-1.10;71.77
76260;BME280;65076;52.362;6.588;2022-11-20T01:29:05;101377.19;;;-1.09;70.69
76260;BME280;65076;52.362;6.588;2022-11-20T01:31:35;101379.63;;;-1.35;70.87
76260;BME280;65076;52.362;6.588;2022-11-20T01:34:06;101376.44;;;-0.91;70.77
76260;BME280;65076;52.362;6.588;2022-11-20T01:36:38;101372.50;;;-1.39;71.75
76260;BME280;65076;52.362;6.588;2022-11-20T01:39:11;101371.88;;;-1.07;71.46
76260;BME280;65076;52.362;6.588;2022-11-20T01:41:40;101374.59;;;-1.01;70.70
76260;BME280;65076;52.362;6.588;2022-11-20T01:44:51;101368.41;;;-0.94;71.22
76260;BME280;65076;52.362;6.588;2022-11-20T01:47:25;101364.75;;;-1.13;70.85
76260;BME280;65076;52.362;6.588;2022-11-20T01:50:01;101366.09;;;-1.62;72.16
76260;BME280;65076;52.362;6.588;2022-11-20T01:52:38;101361.38;;;-0.95;70.66
76260;BME280;65076;52.362;6.588;2022-11-20T01:55:14;101364.94;;;-0.90;69.96
76260;BME280;65076;52.362;6.588;2022-11-20T01:57:46;101372.00;;;-0.92;70.06
76260;BME280;65076;52.362;6.588;2022-11-20T02:00:18;101369.38;;;-0.89;70.05
76260;BME280;65076;52.362;6.588;2022-11-20T02:02:50;101361.28;;;-1.04;70.15
76260;BME280;65076;52.362;6.588;2022-11-20T02:05:23;101363.19;;;-0.85;69.92
76260;BME280;65076;52.362;6.588;2022-11-20T02:07:57;101354.41;;;-0.75;70.05
76260;BME280;65076;52.362;6.588;2022-11-20T02:10:27;101357.00;;;-0.86;70.45
76260;BME280;65076;52.362;6.588;2022-11-20T02:12:56;101356.09;;;-0.88;70.92
76260;BME280;65076;52.362;6.588;2022-11-20T02:15:43;101362.28;;;-0.90;70.59
76260;BME280;65076;52.362;6.588;2022-11-20T02:18:14;101363.06;;;-1.03;70.29
76260;BME280;65076;52.362;6.588;2022-11-20T02:20:47;101350.78;;;-0.88;70.07
76260;BME280;65076;52.362;6.588;2022-11-20T02:23:24;101355.22;;;-0.85;70.02
76260;BME280;65076;52.362;6.588;2022-11-20T02:26:03;101349.09;;;-0.73;69.15
76260;BME280;65076;52.362;6.588;2022-11-20T02:28:34;101351.63;;;-0.93;69.39
76260;BME280;65076;52.362;6.588;2022-11-20T02:31:03;101347.25;;;-0.87;69.52
76260;BME280;65076;52.362;6.588;2022-11-20T02:33:31;101344.53;;;-0.93;70.15
76260;BME280;65076;52.362;6.588;2022-11-20T02:35:59;101337.47;;;-0.92;69.87
76260;BME280;65076;52.362;6.588;2022-11-20T02:38:27;101341.00;;;-0.93;70.09
76260;BME280;65076;52.362;6.588;2022-11-20T02:40:54;101334.78;;;-0.97;69.96
76260;BME280;65076;52.362;6.588;2022-11-20T02:43:24;101336.56;;;-0.97;69.49
76260;BME280;65076;52.362;6.588;2022-11-20T02:45:51;101337.22;;;-1.29;69.80
76260;BME280;65076;52.362;6.588;2022-11-20T02:48:19;101329.34;;;-1.16;70.54
76260;BME280;65076;52.362;6.588;2022-11-20T02:50:50;101324.03;;;-1.18;70.15
76260;BME280;65076;52.362;6.588;2022-11-20T02:53:18;101317.91;;;-1.06;70.16
76260;BME280;65076;52.362;6.588;2022-11-20T02:55:46;101328.56;;;-0.99;69.70
76260;BME280;65076;52.362;6.588;2022-11-20T02:58:14;101328.53;;;-1.06;69.61
76260;BME280;65076;52.362;6.588;2022-11-20T03:00:43;101321.41;;;-1.12;70.21
76260;BME280;65076;52.362;6.588;2022-11-20T03:03:10;101316.16;;;-1.03;69.49
76260;BME280;65076;52.362;6.588;2022-11-20T03:05:38;101328.19;;;-1.52;71.14
76260;BME280;65076;52.362;6.588;2022-11-20T03:08:06;101320.16;;;-1.62;71.45
76260;BME280;65076;52.362;6.588;2022-11-20T03:10:34;101314.94;;;-1.52;70.90
76260;BME280;65076;52.362;6.588;2022-11-20T03:13:02;101311.28;;;-1.63;70.71
76260;BME280;65076;52.362;6.588;2022-11-20T03:15:30;101312.38;;;-1.38;70.18
76260;BME280;65076;52.362;6.588;2022-11-20T03:17:59;101317.81;;;-1.21;69.85
76260;BME280;65076;52.362;6.588;2022-11-20T03:20:27;101335.50;;;-1.22;69.83
76260;BME280;65076;52.362;6.588;2022-11-20T03:22:54;101330.13;;;-1.30;69.45
76260;BME280;65076;52.362;6.588;2022-11-20T03:25:22;101332.75;;;-1.33;68.98
76260;BME280;65076;52.362;6.588;2022-11-20T03:27:50;101317.81;;;-1.18;68.72
76260;BME280;65076;52.362;6.588;2022-11-20T03:30:18;101323.91;;;-1.30;69.07
76260;BME280;65076;52.362;6.588;2022-11-20T03:32:48;101322.88;;;-1.52;70.28
76260;BME280;65076;52.362;6.588;2022-11-20T03:35:17;101318.63;;;-1.30;69.88
76260;BME280;65076;52.362;6.588;2022-11-20T03:37:45;101321.16;;;-1.45;69.68
76260;BME280;65076;52.362;6.588;2022-11-20T03:40:13;101324.75;;;-1.42;70.32
76260;BME280;65076;52.362;6.588;2022-11-20T03:42:41;101317.28;;;-1.84;71.35
76260;BME280;65076;52.362;6.588;2022-11-20T03:45:16;101317.47;;;-1.61;71.30
76260;BME280;65076;52.362;6.588;2022-11-20T03:47:45;101319.31;;;-1.54;71.02
76260;BME280;65076;52.362;6.588;2022-11-20T03:50:13;101319.44;;;-1.42;69.46
76260;BME280;65076;52.362;6.588;2022-11-20T03:52:43;101317.63;;;-1.44;70.65
76260;BME280;65076;52.362;6.588;2022-11-20T03:55:10;101312.03;;;-1.76;71.17
76260;BME280;65076;52.362;6.588;2022-11-20T03:57:38;101305.06;;;-1.65;71.40
76260;BME280;65076;52.362;6.588;2022-11-20T04:00:07;101306.16;;;-1.43;71.05
76260;BME280;65076;52.362;6.588;2022-11-20T04:02:35;101301.75;;;-1.38;70.47
76260;BME280;65076;52.362;6.588;2022-11-20T04:05:03;101291.25;;;-1.21;69.95
76260;BME280;65076;52.362;6.588;2022-11-20T04:07:33;101292.84;;;-1.45;70.30
76260;BME280;65076;52.362;6.588;2022-11-20T04:10:04;101292.06;;;-1.30;69.70
76260;BME280;65076;52.362;6.588;2022-11-20T04:12:32;101291.19;;;-1.31;69.81
76260;BME280;65076;52.362;6.588;2022-11-20T04:15:00;101279.56;;;-1.46;69.88
76260;BME280;65076;52.362;6.588;2022-11-20T04:17:28;101276.03;;;-1.45;69.10
76260;BME280;65076;52.362;6.588;2022-11-20T04:19:56;101278.44;;;-1.79;69.79
76260;BME280;65076;52.362;6.588;2022-11-20T04:22:24;101283.75;;;-1.77;70.66
76260;BME280;65076;52.362;6.588;2022-11-20T04:24:52;101268.06;;;-1.50;70.45
76260;BME280;65076;52.362;6.588;2022-11-20T04:27:21;101273.06;;;-1.83;70.86
76260;BME280;65076;52.362;6.588;2022-11-20T04:29:49;101261.91;;;-1.44;71.04
76260;BME280;65076;52.362;6.588;2022-11-20T04:32:17;101258.38;;;-1.40;70.51
76260;BME280;65076;52.362;6.588;2022-11-20T04:34:45;101262.88;;;-1.36;70.35
76260;BME280;65076;52.362;6.588;2022-11-20T04:37:12;101263.63;;;-1.49;69.51
76260;BME280;65076;52.362;6.588;2022-11-20T04:39:40;101264.56;;;-1.44;70.67
76260;BME280;65076;52.362;6.588;2022-11-20T04:42:09;101261.81;;;-1.56;70.49
76260;BME280;65076;52.362;6.588;2022-11-20T04:44:57;101263.69;;;-1.40;71.48
76260;BME280;65076;52.362;6.588;2022-11-20T04:47:25;101268.09;;;-1.41;69.93
76260;BME280;65076;52.362;6.588;2022-11-20T04:49:53;101262.78;;;-1.45;69.96
76260;BME280;65076;52.362;6.588;2022-11-20T04:52:21;101262.69;;;-1.59;71.56
76260;BME280;65076;52.362;6.588;2022-11-20T04:54:49;101259.31;;;-1.37;70.93
76260;BME280;65076;52.362;6.588;2022-11-20T04:57:19;101258.25;;;-1.60;70.91
76260;BME280;65076;52.362;6.588;2022-11-20T04:59:47;101262.59;;;-1.66;70.79
76260;BME280;65076;52.362;6.588;2022-11-20T05:02:17;101254.81;;;-1.45;70.57
76260;BME280;65076;52.362;6.588;2022-11-20T05:04:45;101253.91;;;-1.46;70.66
76260;BME280;65076;52.362;6.588;2022-11-20T05:07:13;101254.00;;;-1.38;70.41
76260;BME280;65076;52.362;6.588;2022-11-20T05:09:41;101252.84;;;-1.72;71.68
76260;BME280;65076;52.362;6.588;2022-11-20T05:12:08;101257.00;;;-2.01;73.40
76260;BME280;65076;52.362;6.588;2022-11-20T05:14:37;101254.69;;;-1.65;72.25
76260;BME280;65076;52.362;6.588;2022-11-20T05:17:04;101255.41;;;-1.84;72.78
76260;BME280;65076;52.362;6.588;2022-11-20T05:19:34;101254.63;;;-1.71;72.96
76260;BME280;65076;52.362;6.588;2022-11-20T05:22:02;101255.97;;;-2.20;73.77
76260;BME280;65076;52.362;6.588;2022-11-20T05:24:29;101247.78;;;-2.40;74.70
76260;BME280;65076;52.362;6.588;2022-11-20T05:26:58;101247.19;;;-2.13;75.08
76260;BME280;65076;52.362;6.588;2022-11-20T05:29:25;101238.72;;;-1.69;73.81
76260;BME280;65076;52.362;6.588;2022-11-20T05:31:53;101237.97;;;-1.53;72.27
76260;BME280;65076;52.362;6.588;2022-11-20T05:34:21;101238.88;;;-1.48;72.52
76260;BME280;65076;52.362;6.588;2022-11-20T05:36:50;101235.19;;;-1.73;72.66
76260;BME280;65076;52.362;6.588;2022-11-20T05:39:18;101234.22;;;-1.81;72.47
76260;BME280;65076;52.362;6.588;2022-11-20T05:41:46;101233.03;;;-2.14;73.90
76260;BME280;65076;52.362;6.588;2022-11-20T05:44:34;101240.41;;;-1.78;72.79
76260;BME280;65076;52.362;6.588;2022-11-20T05:47:02;101223.69;;;-1.71;71.91
76260;BME280;65076;52.362;6.588;2022-11-20T05:49:30;101241.41;;;-1.68;72.31
76260;BME280;65076;52.362;6.588;2022-11-20T05:52:00;101235.09;;;-1.84;72.38
76260;BME280;65076;52.362;6.588;2022-11-20T05:54:27;101238.03;;;-1.44;71.30
76260;BME280;65076;52.362;6.588;2022-11-20T05:56:55;101241.41;;;-1.62;71.37
76260;BME280;65076;52.362;6.588;2022-11-20T05:59:23;101255.97;;;-2.20;72.65
76260;BME280;65076;52.362;6.588;2022-11-20T06:01:51;101256.28;;;-1.85;72.40
76260;BME280;65076;52.362;6.588;2022-11-20T06:04:19;101261.00;;;-1.48;70.81
76260;BME280;65076;52.362;6.588;2022-11-20T06:06:47;101249.47;;;-1.51;70.55
76260;BME280;65076;52.362;6.588;2022-11-20T06:09:16;101251.88;;;-1.85;71.54
76260;BME280;65076;52.362;6.588;2022-11-20T06:11:44;101253.66;;;-1.81;72.11
76260;BME280;65076;52.362;6.588;2022-11-20T06:14:12;101241.56;;;-1.44;71.41
76260;BME280;65076;52.362;6.588;2022-11-20T06:16:40;101242.38;;;-1.54;72.17
76260;BME280;65076;52.362;6.588;2022-11-20T06:19:07;101240.66;;;-1.49;71.61
76260;BME280;65076;52.362;6.588;2022-11-20T06:21:35;101239.66;;;-1.64;72.25
76260;BME280;65076;52.362;6.588;2022-11-20T06:24:03;101242.34;;;-1.60;72.43
76260;BME280;65076;52.362;6.588;2022-11-20T06:26:33;101245.00;;;-1.55;71.76
76260;BME280;65076;52.362;6.588;2022-11-20T06:29:01;101244.22;;;-1.47;70.92
76260;BME280;65076;52.362;6.588;2022-11-20T06:31:28;101245.88;;;-1.56;72.11
76260;BME280;65076;52.362;6.588;2022-11-20T06:33:59;101247.88;;;-1.26;70.86
76260;BME280;65076;52.362;6.588;2022-11-20T06:36:27;101256.22;;;-1.88;71.82
76260;BME280;65076;52.362;6.588;2022-11-20T06:38:54;101246.81;;;-1.50;72.21
76260;BME280;65076;52.362;6.588;2022-11-20T06:41:23;101245.09;;;-1.45;71.69
76260;BME280;65076;52.362;6.588;2022-11-20T06:43:52;101245.69;;;-1.82;72.46
76260;BME280;65076;52.362;6.588;2022-11-20T06:46:20;101250.31;;;-1.58;72.27
76260;BME280;65076;52.362;6.588;2022-11-20T06:48:49;101250.44;;;-1.36;71.07
76260;BME280;65076;52.362;6.588;2022-11-20T06:51:17;101249.56;;;-1.39;69.58
76260;BME280;65076;52.362;6.588;2022-11-20T06:53:46;101252.75;;;-1.86;71.60
76260;BME280;65076;52.362;6.588;2022-11-20T06:56:13;101269.53;;;-1.85;71.45
76260;BME280;65076;52.362;6.588;2022-11-20T06:58:41;101263.44;;;-1.72;70.54
76260;BME280;65076;52.362;6.588;2022-11-20T07:01:12;101252.69;;;-1.92;71.44
76260;BME280;65076;52.362;6.588;2022-11-20T07:03:42;101257.09;;;-1.94;71.12
76260;BME280;65076;52.362;6.588;2022-11-20T07:06:13;101251.09;;;-1.70;70.81
76260;BME280;65076;52.362;6.588;2022-11-20T07:08:41;101251.00;;;-1.82;70.31
76260;BME280;65076;52.362;6.588;2022-11-20T07:11:11;101258.72;;;-2.09;72.07
76260;BME280;65076;52.362;6.588;2022-11-20T07:13:39;101264.19;;;-1.91;71.46
76260;BME280;65076;52.362;6.588;2022-11-20T07:16:07;101256.41;;;-1.73;70.80
76260;BME280;65076;52.362;6.588;2022-11-20T07:18:37;101247.31;;;-1.98;71.00
76260;BME280;65076;52.362;6.588;2022-11-20T07:21:08;101254.59;;;-2.63;72.88
76260;BME280;65076;52.362;6.588;2022-11-20T07:23:37;101257.13;;;-1.89;71.52
76260;BME280;65076;52.362;6.588;2022-11-20T07:26:06;101259.84;;;-1.80;70.87
76260;BME280;65076;52.362;6.588;2022-11-20T07:28:35;101258.53;;;-1.20;69.33
76260;BME280;65076;52.362;6.588;2022-11-20T07:31:04;101257.84;;;-0.83;68.37
76260;BME280;65076;52.362;6.588;2022-11-20T07:33:34;101253.50;;;-0.64;67.22
76260;BME280;65076;52.362;6.588;2022-11-20T07:36:03;101243.78;;;-0.47;66.64
76260;BME280;65076;52.362;6.588;2022-11-20T07:38:32;101237.72;;;0.04;65.66
76260;BME280;65076;52.362;6.588;2022-11-20T07:41:00;101239.47;;;0.26;65.00
76260;BME280;65076;52.362;6.588;2022-11-20T07:43:28;101236.81;;;0.63;63.77
76260;BME280;65076;52.362;6.588;2022-11-20T07:45:57;101232.25;;;1.03;63.17
76260;BME280;65076;52.362;6.588;2022-11-20T07:48:26;101231.91;;;1.77;62.76
76260;BME280;65076;52.362;6.588;2022-11-20T07:50:54;101234.06;;;0.92;64.03
76260;BME280;65076;52.362;6.588;2022-11-20T07:53:24;101222.84;;;1.99;60.76
76260;BME280;65076;52.362;6.588;2022-11-20T07:55:52;101221.03;;;2.07;59.07
76260;BME280;65076;52.362;6.588;2022-11-20T07:58:20;101230.56;;;0.76;63.41
76260;BME280;65076;52.362;6.588;2022-11-20T08:00:49;101216.91;;;2.71;60.17
76260;BME280;65076;52.362;6.588;2022-11-20T08:03:17;101213.34;;;2.69;57.53
76260;BME280;65076;52.362;6.588;2022-11-20T08:05:51;101226.56;;;1.79;61.31
76260;BME280;65076;52.362;6.588;2022-11-20T08:08:19;101226.41;;;2.00;60.28
76260;BME280;65076;52.362;6.588;2022-11-20T08:10:48;101216.50;;;2.19;59.48
76260;BME280;65076;52.362;6.588;2022-11-20T08:13:16;101222.00;;;1.99;59.65
76260;BME280;65076;52.362;6.588;2022-11-20T08:16:01;101216.25;;;2.46;59.26
76260;BME280;65076;52.362;6.588;2022-11-20T08:18:29;101216.44;;;2.25;58.55
76260;BME280;65076;52.362;6.588;2022-11-20T08:21:01;101216.63;;;2.00;61.45
76260;BME280;65076;52.362;6.588;2022-11-20T08:23:31;101212.72;;;2.44;59.39
76260;BME280;65076;52.362;6.588;2022-11-20T08:26:00;101209.88;;;3.38;58.20
76260;BME280;65076;52.362;6.588;2022-11-20T08:28:28;101208.94;;;3.41;56.81
76260;BME280;65076;52.362;6.588;2022-11-20T08:30:58;101203.47;;;4.10;55.68
76260;BME280;65076;52.362;6.588;2022-11-20T08:33:26;101202.44;;;3.60;56.60
76260;BME280;65076;52.362;6.588;2022-11-20T08:35:58;101199.47;;;4.35;54.26
76260;BME280;65076;52.362;6.588;2022-11-20T08:38:27;101194.84;;;3.90;55.25
76260;BME280;65076;52.362;6.588;2022-11-20T08:40:56;101193.03;;;4.45;55.17
76260;BME280;65076;52.362;6.588;2022-11-20T08:43:43;101184.25;;;4.39;54.55
76260;BME280;65076;52.362;6.588;2022-11-20T08:46:12;101184.19;;;4.88;54.27
76260;BME280;65076;52.362;6.588;2022-11-20T08:48:40;101184.63;;;5.11;53.15
76260;BME280;65076;52.362;6.588;2022-11-20T08:51:09;101176.78;;;5.82;52.71
76260;BME280;65076;52.362;6.588;2022-11-20T08:53:38;101177.84;;;6.13;52.26
76260;BME280;65076;52.362;6.588;2022-11-20T08:56:07;101163.06;;;6.97;49.76
76260;BME280;65076;52.362;6.588;2022-11-20T08:58:36;101166.06;;;7.17;48.45
76260;BME280;65076;52.362;6.588;2022-11-20T09:01:26;101164.25;;;6.87;48.73
76260;BME280;65076;52.362;6.588;2022-11-20T09:03:55;101166.84;;;8.07;45.61
76260;BME280;65076;52.362;6.588;2022-11-20T09:06:23;101158.97;;;8.28;43.91
76260;BME280;65076;52.362;6.588;2022-11-20T09:08:51;101154.81;;;9.43;43.55
76260;BME280;65076;52.362;6.588;2022-11-20T09:11:20;101145.97;;;8.14;44.52
76260;BME280;65076;52.362;6.588;2022-11-20T09:13:49;101148.66;;;9.40;43.07
76260;BME280;65076;52.362;6.588;2022-11-20T09:16:17;101136.81;;;9.20;42.69
76260;BME280;65076;52.362;6.588;2022-11-20T09:18:46;101138.44;;;7.97;46.29
76260;BME280;65076;52.362;6.588;2022-11-20T09:21:32;101144.00;;;7.93;45.56
76260;BME280;65076;52.362;6.588;2022-11-20T09:24:00;101142.00;;;8.26;45.59
76260;BME280;65076;52.362;6.588;2022-11-20T09:26:28;101146.00;;;7.86;46.07
76260;BME280;65076;52.362;6.588;2022-11-20T09:28:56;101152.53;;;6.57;49.15
76260;BME280;65076;52.362;6.588;2022-11-20T09:31:25;101144.84;;;6.08;51.33
76260;BME280;65076;52.362;6.588;2022-11-20T09:33:54;101139.06;;;6.59;50.83
76260;BME280;65076;52.362;6.588;2022-11-20T09:36:22;101136.53;;;6.85;49.36
76260;BME280;65076;52.362;6.588;2022-11-20T09:38:50;101138.81;;;5.60;52.05
76260;BME280;65076;52.362;6.588;2022-11-20T09:41:40;101144.00;;;5.29;53.91
76260;BME280;65076;52.362;6.588;2022-11-20T09:44:45;101142.75;;;5.04;54.97
76260;BME280;65076;52.362;6.588;2022-11-20T09:47:31;101146.44;;;4.54;56.38
76260;BME280;65076;52.362;6.588;2022-11-20T09:50:25;101151.81;;;4.98;56.13
76260;BME280;65076;52.362;6.588;2022-11-20T09:53:08;101146.13;;;4.71;56.23
76260;BME280;65076;52.362;6.588;2022-11-20T09:55:40;101133.47;;;4.77;57.01
76260;BME280;65076;52.362;6.588;2022-11-20T09:58:16;101130.31;;;4.57;56.13
76260;BME280;65076;52.362;6.588;2022-11-20T10:00:53;101131.69;;;4.78;56.95
76260;BME280;65076;52.362;6.588;2022-11-20T10:03:35;101132.34;;;5.32;55.73
76260;BME280;65076;52.362;6.588;2022-11-20T10:06:13;101130.56;;;4.88;55.69
76260;BME280;65076;52.362;6.588;2022-11-20T10:08:50;101127.84;;;5.32;55.83
76260;BME280;65076;52.362;6.588;2022-11-20T10:11:35;101133.81;;;5.03;56.31
76260;BME280;65076;52.362;6.588;2022-11-20T10:14:22;101122.00;;;5.53;54.37
76260;BME280;65076;52.362;6.588;2022-11-20T10:17:02;101124.44;;;5.24;55.97
76260;BME280;65076;52.362;6.588;2022-11-20T10:19:47;101111.88;;;5.26;55.89
76260;BME280;65076;52.362;6.588;2022-11-20T10:22:43;101104.47;;;5.39;56.92
76260;BME280;65076;52.362;6.588;2022-11-20T10:25:37;101096.75;;;5.62;55.71
76260;BME280;65076;52.362;6.588;2022-11-20T10:28:17;101092.97;;;5.32;56.28
76260;BME280;65076;52.362;6.588;2022-11-20T10:31:00;101087.00;;;5.95;54.47
76260;BME280;65076;52.362;6.588;2022-11-20T10:33:33;101104.53;;;6.10;54.17
76260;BME280;65076;52.362;6.588;2022-11-20T10:36:28;101098.25;;;5.74;55.45
76260;BME280;65076;52.362;6.588;2022-11-20T10:39:06;101100.88;;;5.38;55.80
76260;BME280;65076;52.362;6.588;2022-11-20T10:41:41;101088.63;;;5.65;55.58
76260;BME280;65076;52.362;6.588;2022-11-20T10:44:17;101084.88;;;5.71;55.27
76260;BME280;65076;52.362;6.588;2022-11-20T10:47:13;101092.34;;;5.20;55.53
76260;BME280;65076;52.362;6.588;2022-11-20T10:49:43;101079.34;;;5.78;54.34
76260;BME280;65076;52.362;6.588;2022-11-20T10:52:21;101083.22;;;6.02;54.49
76260;BME280;65076;52.362;6.588;2022-11-20T10:55:06;101092.06;;;6.07;53.96
76260;BME280;65076;52.362;6.588;2022-11-20T10:57:52;101098.22;;;5.38;54.46
76260;BME280;65076;52.362;6.588;2022-11-20T11:00:23;101076.25;;;5.97;54.50
76260;BME280;65076;52.362;6.588;2022-11-20T11:02:53;101082.63;;;5.54;55.38
76260;BME280;65076;52.362;6.588;2022-11-20T11:05:33;101075.84;;;5.38;55.01
76260;BME280;65076;52.362;6.588;2022-11-20T11:08:10;101079.88;;;5.55;54.89
76260;BME280;65076;52.362;6.588;2022-11-20T11:10:46;101074.41;;;5.23;56.56
76260;BME280;65076;52.362;6.588;2022-11-20T11:13:20;101070.78;;;5.24;56.31
76260;BME280;65076;52.362;6.588;2022-11-20T11:15:49;101076.97;;;4.88;57.08
76260;BME280;65076;52.362;6.588;2022-11-20T11:18:25;101066.19;;;5.31;56.70
76260;BME280;65076;52.362;6.588;2022-11-20T11:20:55;101066.31;;;4.85;56.98
76260;BME280;65076;52.362;6.588;2022-11-20T11:23:42;101059.03;;;5.30;56.81
76260;BME280;65076;52.362;6.588;2022-11-20T11:26:20;101062.69;;;4.87;57.57
76260;BME280;65076;52.362;6.588;2022-11-20T11:28:54;101052.34;;;5.10;58.08
76260;BME280;65076;52.362;6.588;2022-11-20T11:31:24;101056.09;;;5.40;57.29
76260;BME280;65076;52.362;6.588;2022-11-20T11:34:04;101054.19;;;5.45;56.93
76260;BME280;65076;52.362;6.588;2022-11-20T11:36:33;101036.91;;;5.59;56.32
76260;BME280;65076;52.362;6.588;2022-11-20T11:39:05;101034.44;;;5.85;57.19
76260;BME280;65076;52.362;6.588;2022-11-20T11:41:40;101022.56;;;5.95;57.13
76260;BME280;65076;52.362;6.588;2022-11-20T11:44:15;101010.91;;;5.96;56.36
76260;BME280;65076;52.362;6.588;2022-11-20T11:47:05;101000.66;;;6.10;57.78
76260;BME280;65076;52.362;6.588;2022-11-20T11:49:37;100992.63;;;6.41;56.67
76260;BME280;65076;52.362;6.588;2022-11-20T11:52:09;101000.22;;;6.56;56.94
76260;BME280;65076;52.362;6.588;2022-11-20T11:54:45;101014.09;;;6.43;57.47
76260;BME280;65076;52.362;6.588;2022-11-20T11:57:26;101001.38;;;6.17;58.68
76260;BME280;65076;52.362;6.588;2022-11-20T12:00:02;100996.09;;;6.45;59.00
76260;BME280;65076;52.362;6.588;2022-11-20T12:02:37;100999.00;;;6.37;59.38
76260;BME280;65076;52.362;6.588;2022-11-20T12:05:18;100997.22;;;6.37;60.38
76260;BME280;65076;52.362;6.588;2022-11-20T12:07:53;100994.06;;;6.82;59.39
76260;BME280;65076;52.362;6.588;2022-11-20T12:10:37;100995.75;;;6.26;60.47
76260;BME280;65076;52.362;6.588;2022-11-20T12:13:20;100987.88;;;6.80;59.18
76260;BME280;65076;52.362;6.588;2022-11-20T12:15:56;100975.94;;;6.28;60.51
76260;BME280;65076;52.362;6.588;2022-11-20T12:18:25;100986.94;;;6.21;61.26
76260;BME280;65076;52.362;6.588;2022-11-20T12:21:02;100978.78;;;5.91;61.60
76260;BME280;65076;52.362;6.588;2022-11-20T12:23:45;100980.19;;;5.71;62.19
76260;BME280;65076;52.362;6.588;2022-11-20T12:26:43;100975.31;;;5.88;63.13
76260;BME280;65076;52.362;6.588;2022-11-20T12:29:33;100981.72;;;6.15;62.47
76260;BME280;65076;52.362;6.588;2022-11-20T12:32:31;100982.56;;;5.83;62.38
76260;BME280;65076;52.362;6.588;2022-11-20T12:35:17;100968.75;;;5.98;62.57
76260;BME280;65076;52.362;6.588;2022-11-20T12:38:12;100962.94;;;6.44;60.76
76260;BME280;65076;52.362;6.588;2022-11-20T12:41:10;100957.84;;;6.04;61.94
76260;BME280;65076;52.362;6.588;2022-11-20T12:44:18;100951.13;;;6.50;60.90
76260;BME280;65076;52.362;6.588;2022-11-20T12:47:19;100939.16;;;6.61;60.63
76260;BME280;65076;52.362;6.588;2022-11-20T12:50:00;100948.31;;;6.54;60.47
76260;BME280;65076;52.362;6.588;2022-11-20T12:52:46;100929.56;;;6.53;61.38
76260;BME280;65076;52.362;6.588;2022-11-20T12:55:28;100933.31;;;6.47;61.57
76260;BME280;65076;52.362;6.588;2022-11-20T12:58:10;100916.13;;;6.53;61.39
76260;BME280;65076;52.362;6.588;2022-11-20T13:00:58;100918.09;;;6.46;61.56
76260;BME280;65076;52.362;6.588;2022-11-20T13:03:47;100907.38;;;6.46;61.85
76260;BME280;65076;52.362;6.588;2022-11-20T13:06:21;100905.78;;;6.68;61.20
76260;BME280;65076;52.362;6.588;2022-11-20T13:08:53;100901.44;;;6.35;61.81
76260;BME280;65076;52.362;6.588;2022-11-20T13:11:26;100894.06;;;6.42;61.66
76260;BME280;65076;52.362;6.588;2022-11-20T13:14:18;100885.34;;;6.33;61.93
76260;BME280;65076;52.362;6.588;2022-11-20T13:16:58;100877.53;;;6.26;62.06
76260;BME280;65076;52.362;6.588;2022-11-20T13:19:33;100874.22;;;6.46;62.07
76260;BME280;65076;52.362;6.588;2022-11-20T13:22:02;100869.00;;;6.12;62.73
76260;BME280;65076;52.362;6.588;2022-11-20T13:24:31;100857.97;;;6.21;61.37